createdAt,value
2023-04-18T05:53:14.969Z,9.38
2023-04-18T05:56:10.946Z,8.15
2023-04-18T05:58:39.441Z,8.70
2023-04-18T06:01:14.395Z,9.43
2023-04-18T06:03:45.905Z,9.57
2023-04-18T06:06:14.709Z,8.75
2023-04-18T06:08:44.497Z,9.35
2023-04-18T06:11:15.117Z,8.48
2023-04-18T06:13:43.599Z,8.43
2023-04-18T06:16:12.167Z,8.98
2023-04-18T06:18:40.902Z,9.73
2023-04-18T06:21:09.440Z,9.00
2023-04-18T06:23:38.640Z,8.57
2023-04-18T06:26:09.360Z,8.43
2023-04-18T06:28:37.843Z,8.80
2023-04-18T06:31:06.656Z,8.65
2023-04-18T06:33:35.746Z,8.25
2023-04-18T06:36:04.146Z,11.30
2023-04-18T06:38:36.343Z,7.03
2023-04-18T06:41:05.011Z,8.55
2023-04-18T06:43:37.828Z,8.45
2023-04-18T06:46:14.530Z,9.60
2023-04-18T06:48:42.977Z,8.95
2023-04-18T06:51:11.418Z,8.63
2023-04-18T06:53:39.863Z,8.27
2023-04-18T06:56:08.922Z,8.27
2023-04-18T06:58:40.158Z,8.05
2023-04-18T07:01:08.822Z,8.50
2023-04-18T07:03:46.571Z,7.82
2023-04-18T07:06:15.392Z,10.07
2023-04-18T07:08:44.526Z,9.88
2023-04-18T07:11:14.071Z,8.90
2023-04-18T07:13:45.649Z,8.32
2023-04-18T07:16:21.525Z,9.15
2023-04-18T07:18:50.213Z,9.00
2023-04-18T07:21:18.902Z,7.35
2023-04-18T07:23:48.102Z,8.48
2023-04-18T07:26:16.590Z,9.82
2023-04-18T07:28:47.045Z,9.38
2023-04-18T07:31:16.799Z,8.77
2023-04-18T07:33:45.519Z,9.88
2023-04-18T07:36:14.044Z,9.45
2023-04-18T07:38:45.823Z,9.38
2023-04-18T07:41:17.660Z,10.85
2023-04-18T07:43:47.763Z,10.18
2023-04-18T07:46:16.415Z,10.18
2023-04-18T07:48:44.840Z,10.05
2023-04-18T07:51:13.732Z,9.85
2023-04-18T07:53:43.765Z,10.40
2023-04-18T07:56:14.680Z,9.95
2023-04-18T07:58:43.374Z,10.85
2023-04-18T08:01:15.438Z,9.98
2023-04-18T08:03:44.320Z,9.63
2023-04-18T08:06:12.855Z,10.80
2023-04-18T08:08:41.439Z,8.90
2023-04-18T08:11:10.080Z,9.18
2023-04-18T08:13:38.629Z,9.90
2023-04-18T08:16:07.739Z,9.50
2023-04-18T08:18:37.735Z,9.25
2023-04-18T08:21:06.685Z,10.18
2023-04-18T08:23:35.250Z,9.57
2023-04-18T08:26:03.737Z,10.20
2023-04-18T08:28:32.256Z,10.30
2023-04-18T08:31:00.823Z,10.18
2023-04-18T08:33:32.427Z,10.75
2023-04-18T08:36:02.630Z,9.40
2023-04-18T08:38:31.317Z,10.80
2023-04-18T08:40:59.906Z,9.70
2023-04-18T08:43:30.318Z,10.40
2023-04-18T08:46:00.951Z,9.63
2023-04-18T08:48:29.639Z,9.77
2023-04-18T08:50:59.292Z,9.15
2023-04-18T08:53:29.330Z,9.23
2023-04-18T08:56:00.485Z,9.10
2023-04-18T09:01:02.558Z,9.48
2023-04-18T09:03:39.859Z,8.75
2023-04-18T09:06:10.542Z,8.48
2023-04-18T09:08:43.365Z,8.32
2023-04-18T09:11:26.195Z,8.48
2023-04-18T09:13:56.435Z,9.27
2023-04-18T09:16:25.446Z,8.85
2023-04-18T09:19:14.443Z,9.30
2023-04-18T09:21:46.451Z,9.57
2023-04-18T09:24:24.148Z,10.27
2023-04-18T09:26:54.241Z,9.63
2023-04-18T09:29:24.235Z,9.18
2023-04-18T09:32:03.000Z,8.73
2023-04-18T09:34:34.065Z,10.02
2023-04-18T09:37:10.433Z,10.00
2023-04-18T09:39:41.669Z,9.25
2023-04-18T09:42:11.264Z,9.77
2023-04-18T09:44:39.997Z,7.78
2023-04-18T09:47:08.930Z,7.22
2023-04-18T09:49:39.302Z,7.43
2023-04-18T09:52:08.977Z,6.88
2023-04-18T09:54:41.550Z,5.10
2023-04-18T09:57:13.792Z,6.95
2023-04-18T09:59:48.543Z,7.57
2023-04-18T10:02:22.333Z,8.07
2023-04-18T10:04:52.295Z,5.38
2023-04-18T10:07:22.404Z,5.97
2023-04-18T10:09:53.329Z,5.53
2023-04-18T10:12:22.037Z,5.32
2023-04-18T10:14:50.912Z,7.85
2023-04-18T10:20:07.236Z,6.30
2023-04-18T10:22:36.784Z,5.28
2023-04-18T10:25:08.156Z,5.45
2023-04-18T10:27:59.693Z,5.20
2023-04-18T10:30:52.352Z,5.55
2023-04-18T10:33:32.251Z,5.47
2023-04-18T10:36:16.213Z,6.72
2023-04-18T10:38:49.808Z,7.20
2023-04-18T10:41:27.537Z,6.93
2023-04-18T10:44:29.392Z,4.83
2023-04-18T10:47:25.576Z,7.15
2023-04-18T10:50:06.253Z,6.75
2023-04-18T10:52:35.660Z,6.43
2023-04-18T10:55:15.793Z,6.40
2023-04-18T10:57:47.002Z,7.13
2023-04-18T11:00:17.850Z,5.97
2023-04-18T11:02:52.189Z,5.40
2023-04-18T11:05:23.232Z,7.00
2023-04-18T11:07:51.852Z,8.20
2023-04-18T11:10:22.244Z,6.40
2023-04-18T11:12:52.806Z,5.93
2023-04-18T11:15:22.766Z,6.75
2023-04-18T11:17:59.322Z,5.97
2023-04-18T11:20:28.491Z,5.60
2023-04-18T11:22:58.387Z,6.10
2023-04-18T11:25:29.493Z,7.97
2023-04-18T11:28:03.799Z,6.95
2023-04-18T11:30:38.832Z,7.55
2023-04-18T11:33:10.316Z,5.50
2023-04-18T11:35:40.631Z,5.15
2023-04-18T11:38:11.788Z,6.15
2023-04-18T11:40:40.836Z,5.95
2023-04-18T11:43:10.668Z,6.70
2023-04-18T11:45:39.379Z,5.53
2023-04-18T11:48:07.899Z,6.20
2023-04-18T11:50:40.499Z,5.05
2023-04-18T11:53:13.089Z,7.65
2023-04-18T11:55:42.565Z,7.10
2023-04-18T11:58:14.881Z,7.18
2023-04-18T12:00:46.989Z,6.95
2023-04-18T12:03:17.994Z,7.65
2023-04-18T12:05:47.125Z,6.95
2023-04-18T12:08:20.106Z,8.13
2023-04-18T12:10:50.686Z,7.43
2023-04-18T12:13:36.953Z,6.15
2023-04-18T12:16:13.808Z,6.80
2023-04-18T12:21:32.561Z,6.72
2023-04-18T12:24:01.634Z,6.10
2023-04-18T12:26:30.150Z,7.00
2023-04-18T12:29:02.237Z,6.47
2023-04-18T12:31:30.738Z,6.10
2023-04-18T12:34:00.648Z,6.00
2023-04-18T12:36:29.224Z,6.72
2023-04-18T12:38:57.700Z,6.78
2023-04-18T12:42:10.796Z,6.07
2023-04-18T12:44:48.093Z,5.15
2023-04-18T12:47:22.119Z,5.15
2023-04-18T12:49:58.237Z,5.72
2023-04-18T12:52:27.245Z,6.30
2023-04-18T12:55:00.443Z,6.15
2023-04-18T12:57:30.581Z,5.85
2023-04-18T13:00:01.959Z,5.72
2023-04-18T13:02:38.552Z,5.57
2023-04-18T13:08:41.703Z,5.82
2023-04-18T13:11:10.600Z,5.60
2023-04-18T13:13:39.470Z,5.55
2023-04-18T13:16:09.693Z,5.40
2023-04-18T13:18:38.202Z,5.22
2023-04-18T13:21:06.902Z,5.57
2023-04-18T13:23:35.620Z,5.47
2023-04-18T13:26:04.092Z,5.90
2023-04-18T13:28:32.617Z,6.25
2023-04-18T13:31:01.093Z,5.70
2023-04-18T13:33:31.062Z,5.90
2023-04-18T13:35:59.727Z,5.18
2023-04-18T13:38:31.554Z,5.97
2023-04-18T13:41:11.538Z,4.93
2023-04-18T13:43:41.735Z,6.40
2023-04-18T13:46:13.281Z,5.85
2023-04-18T13:48:45.170Z,5.03
2023-04-18T13:51:16.597Z,5.18
2023-04-18T13:53:49.869Z,6.18
2023-04-18T13:56:23.743Z,5.57
2023-04-18T13:59:16.862Z,6.22
2023-04-18T14:01:47.277Z,6.00
2023-04-18T14:04:23.220Z,6.18
2023-04-18T14:06:54.951Z,6.20
2023-04-18T14:09:26.140Z,6.00
2023-04-18T14:11:58.456Z,5.75
2023-04-18T14:14:27.185Z,5.50
2023-04-18T14:16:55.883Z,6.03
2023-04-18T14:21:57.530Z,5.10
2023-04-18T14:24:26.351Z,5.25
2023-04-18T14:26:54.948Z,6.05
2023-04-18T14:29:23.452Z,6.45
2023-04-18T14:32:02.005Z,6.57
2023-04-18T14:34:38.846Z,6.13
2023-04-18T14:37:08.983Z,5.80
2023-04-18T14:39:40.546Z,7.57
2023-04-18T14:42:11.623Z,6.22
2023-04-18T14:44:40.313Z,6.00
2023-04-18T14:47:42.892Z,5.53
2023-04-18T14:50:18.302Z,5.68
2023-04-18T14:52:50.843Z,6.20
2023-04-18T14:55:24.706Z,5.78
2023-04-18T14:58:17.858Z,5.07
2023-04-18T15:01:25.267Z,6.00
2023-04-18T15:03:55.971Z,6.20
2023-04-18T15:06:30.655Z,4.40
2023-04-18T15:09:31.003Z,5.20
2023-04-18T15:12:10.386Z,4.85
2023-04-18T15:14:51.172Z,4.88
2023-04-18T15:17:21.934Z,5.30
2023-04-18T15:19:55.215Z,4.30
2023-04-18T15:22:25.317Z,6.13
2023-04-18T15:24:53.982Z,5.72
2023-04-18T15:27:29.877Z,4.88
2023-04-18T15:30:08.430Z,5.22
2023-04-18T15:32:37.017Z,5.60
2023-04-18T15:35:06.711Z,5.13
2023-04-18T15:37:37.001Z,4.90
2023-04-18T15:40:11.203Z,4.93
2023-04-18T15:42:43.321Z,5.30
2023-04-18T15:45:12.515Z,5.43
2023-04-18T15:47:41.897Z,5.35
2023-04-18T15:50:11.297Z,5.28
2023-04-18T15:52:42.285Z,5.80
2023-04-18T15:55:13.381Z,5.53
2023-04-18T15:57:42.543Z,5.60
2023-04-18T16:00:32.642Z,6.10
2023-04-18T16:03:10.579Z,5.72
2023-04-18T16:05:40.958Z,5.95
2023-04-18T16:08:11.012Z,5.25
2023-04-18T16:10:42.268Z,5.30
2023-04-18T16:13:14.082Z,5.57
2023-04-18T16:15:45.754Z,6.03
2023-04-18T16:18:14.428Z,5.32
2023-04-18T16:20:42.999Z,5.78
2023-04-18T16:23:12.882Z,5.25
2023-04-18T16:25:41.511Z,5.90
2023-04-18T16:28:10.613Z,5.45
2023-04-18T16:30:39.188Z,6.10
2023-04-18T16:33:08.840Z,5.90
2023-04-18T16:35:41.400Z,5.70
2023-04-18T16:38:10.117Z,6.15
2023-04-18T16:40:43.194Z,5.50
2023-04-18T16:43:13.171Z,5.65
2023-04-18T16:45:44.078Z,5.45
2023-04-18T16:48:12.849Z,6.55
2023-04-18T16:50:41.347Z,5.93
2023-04-18T16:53:14.498Z,6.53
2023-04-18T16:55:45.846Z,6.55
2023-04-18T16:58:14.542Z,5.50
2023-04-18T17:00:45.716Z,6.60
2023-04-18T17:03:14.512Z,7.75
2023-04-18T17:08:14.248Z,6.90
2023-04-18T17:10:44.249Z,8.13
2023-04-18T17:13:17.001Z,8.43
2023-04-18T17:15:45.694Z,7.95
2023-04-18T17:18:16.155Z,7.32
2023-04-18T17:20:44.771Z,6.90
2023-04-18T17:23:13.489Z,7.65
2023-04-18T17:25:41.956Z,8.35
2023-04-18T17:28:11.993Z,7.05
2023-04-18T17:30:42.803Z,6.78
2023-04-18T17:33:11.671Z,7.72
2023-04-18T17:35:42.219Z,6.55
2023-04-18T17:38:11.719Z,7.65
2023-04-18T17:40:40.752Z,6.88
2023-04-18T17:43:09.212Z,7.63
2023-04-18T17:45:39.292Z,6.55
2023-04-18T17:48:08.029Z,7.32
2023-04-18T17:50:38.177Z,6.18
2023-04-18T17:53:06.911Z,7.03
2023-04-18T17:55:35.780Z,7.22
2023-04-18T18:00:33.837Z,5.70
2023-04-18T18:03:04.555Z,6.28
2023-04-18T18:05:33.115Z,7.38
2023-04-18T18:08:01.695Z,7.22
2023-04-18T18:10:33.783Z,6.60
2023-04-18T18:13:02.292Z,6.32
2023-04-18T18:15:30.949Z,6.63
2023-04-18T18:17:59.740Z,6.50
2023-04-18T18:20:30.953Z,6.15
2023-04-18T18:23:00.333Z,5.53
2023-04-18T18:25:28.791Z,6.18
2023-04-18T18:27:57.258Z,5.82
2023-04-18T18:30:25.944Z,5.88
2023-04-18T18:32:54.654Z,5.97
2023-04-18T18:37:54.637Z,4.85
2023-04-18T18:40:25.352Z,5.25
2023-04-18T18:42:54.981Z,5.60
2023-04-18T18:45:23.907Z,5.43
2023-04-18T18:47:55.928Z,6.38
2023-04-18T18:50:24.594Z,5.35
2023-04-18T18:52:54.511Z,5.28
2023-04-18T18:55:23.142Z,5.50
2023-04-18T18:57:51.933Z,5.85
